Aérodrome :
LOGIN :

S'inscrire | Disclaimer

   EN    FR    IT 

 










Légende :    VFR   VFR Marginal   IFR   IFR Intensif   IFR Très Intensif
Visi : 
Plafond : 
>= 8 km
>= 3000ft
5 à 8 km
1000 à 3000 ft
1500m à 5 km
500 à 1000 ft
800 à 1500m
200 à 500 ft
< 800m
< 200 ft
Symboles :   Orages  Brouillard  Fortes neiges  Fortes précipitations  Vent > 20 kt
SIGMETs :   Divers  Orages  Givrage  Turbulence  Onde Orograph.  Cendres Volcan.






- Altitude de l'aérodrome : 194 ft


EBCV - Chièvres

DERNIER METAR :
  • 210355Z AUTO 08005KT 7000 OVC009/// 11/11 Q1010 GRN

METARs EXPIRÉS :
  • 210325Z AUTO 07006KT 5000 OVC004/// 11/11 Q1009 YLO
  • 210255Z AUTO 08005KT 3300 RA OVC005/// 11/11 Q1009 YLO
  • 210225Z AUTO 07007KT 5000 OVC005/// 11/10 Q1009 YLO
  • 210155Z AUTO 07008KT 7000 -RA OVC005/// 11/11 Q1009 YLO
  • 210125Z AUTO 07008KT 5000 -RA OVC005/// 11/10 Q1009 YLO

TAF TAF EBCV
Valide du 20 à 19h jusqu'au 21 à 07h UTC


201541Z 2019/2107 04008KT 9999 SCT025 BKN040
TEMPO 2019/2107 02010KT 4000 -RA -SHRA SCT012 BKN022
PROB30
TEMPO 2100/2107 180 15G25KT 2500 SHRA -TSRA SCT008 BKN015CB BY EBWM



MET'MAP, la Météo Aéronautique d'un coup d'oeil ! - Copyright ORBIFLY Décembre 2007 - Disclaimer

ORBIFLY MET'MAP TEAM :

Programmation & Développement : Alexandra Zaïnal
Conception & Développement : Baudouin d'Aumeries
Co-Programmation & Développement : Marc-Olivier Méhu
Soutien technique & logistique : Manuel Goepfert

Contact : metmap@orbifly.com




SOURCES & CREDITS :

   NOAA